Time;durP1;ratioP1;P1;durP2;ratioP2;P2;SDS_P1;SDS_P2;PMS_P1;PMS_P2;Temp;Humidity;BMP_temperature;BMP_pressure;BME280_temperature;BME280_humidity;BME280_pressure;Samples;Min_cycle;Max_cycle;Signal;HPM_P1;HPM_P2
2022/01/17 00:01:04;;;;;;;4.82;2.25;;;;;;;-7.09;80.67;97935.00;4997191;28;20058;-78
2022/01/17 00:03:29;;;;;;;7.13;2.30;;;;;;;-7.00;80.89;97919.38;5014331;28;20421;-80
2022/01/17 00:05:55;;;;;;;6.65;2.33;;;;;;;-7.05;80.41;97915.81;4997002;28;20037;-78
2022/01/17 00:08:21;;;;;;;8.70;2.67;;;;;;;-7.06;80.84;97904.00;4997529;28;20037;-77
2022/01/17 00:10:47;;;;;;;10.40;2.83;;;;;;;-7.07;81.24;97890.53;5014562;28;20408;-78
2022/01/17 00:13:22;;;;;;;;;;;;;;;-7.07;80.72;97890.53;4997437;28;20041;-77
2022/01/17 00:15:51;;;;;;;6.03;2.40;;;;;;;-7.08;81.38;97872.84;4997389;28;19925;-78
2022/01/17 00:20:47;;;;;;;9.32;2.70;;;;;;;-7.12;81.38;97869.38;5013286;28;20136;-79
2022/01/17 00:23:16;;;;;;;7.57;2.75;;;;;;;-7.08;82.22;97858.59;4997781;28;20033;-79
2022/01/17 00:25:42;;;;;;;6.82;2.45;;;;;;;-7.01;81.56;97864.69;5013438;28;20455;-79
2022/01/17 00:28:07;;;;;;;8.07;2.33;;;;;;;-7.04;81.86;97867.13;5029501;28;20041;-76
2022/01/17 00:30:33;;;;;;;3.75;2.08;;;;;;;-6.95;82.28;97862.41;5012808;28;20088;-77
2022/01/17 00:32:59;;;;;;;7.90;2.28;;;;;;;-7.03;81.92;97869.69;5012617;28;20108;-77
2022/01/17 00:35:25;;;;;;;6.20;2.40;;;;;;;-6.98;81.14;97853.06;4980527;28;20065;-77
2022/01/17 00:37:51;;;;;;;5.85;2.20;;;;;;;-6.99;81.80;97851.34;4997403;28;20128;-77
2022/01/17 00:40:18;;;;;;;10.07;2.95;;;;;;;-6.98;81.03;97858.09;5014144;28;20121;-78
2022/01/17 00:42:44;;;;;;;6.88;2.60;;;;;;;-7.03;81.36;97834.41;4996394;28;20521;-77
2022/01/17 00:45:13;;;;;;;11.35;3.00;;;;;;;-7.04;81.95;97832.69;4996257;28;20100;-77
2022/01/17 00:47:38;;;;;;;8.77;2.50;;;;;;;-6.98;80.65;97830.38;5012332;28;20077;-76
2022/01/17 00:50:05;;;;;;;7.68;2.70;;;;;;;-6.99;81.19;97822.78;5012784;28;20050;-77
2022/01/17 00:52:30;;;;;;;10.82;2.80;;;;;;;-7.04;81.03;97819.25;4996321;28;20169;-77
2022/01/17 00:54:56;;;;;;;10.65;3.15;;;;;;;-7.05;81.22;97812.50;5012749;28;20045;-77
2022/01/17 00:57:22;;;;;;;10.43;3.08;;;;;;;-7.00;80.90;97814.38;4996474;28;20048;-77
2022/01/17 00:59:47;;;;;;;7.32;3.00;;;;;;;-7.08;81.58;97795.59;5013498;28;20038;-79
2022/01/17 01:02:13;;;;;;;8.23;3.25;;;;;;;-7.07;81.46;97797.31;4996001;28;20061;-82
2022/01/17 01:04:39;;;;;;;12.30;3.53;;;;;;;-7.13;81.34;97788.69;4980224;28;20041;-78
2022/01/17 01:07:04;;;;;;;13.85;3.67;;;;;;;-7.07;81.39;97791.41;5013085;28;20025;-79
2022/01/17 01:09:36;;;;;;;14.38;3.67;;;;;;;-7.11;81.85;97775.31;4996441;28;20500;-80
2022/01/17 01:12:03;;;;;;;11.02;4.05;;;;;;;-7.13;82.81;97776.94;5013713;28;20046;-77
2022/01/17 01:14:28;;;;;;;11.25;3.67;;;;;;;-7.10;82.08;97761.94;4996604;28;20034;-78
2022/01/17 01:16:57;;;;;;;12.30;3.38;;;;;;;-7.02;82.87;97747.91;5013965;28;20057;-82
2022/01/17 01:30:29;;;;;;;14.82;4.55;;;;;;;-6.95;83.09;97701.09;5031145;28;20136;-77
2022/01/17 01:32:58;;;;;;;17.63;4.80;;;;;;;-6.96;82.06;97695.22;4996411;28;20037;-79
2022/01/17 01:35:26;;;;;;;16.45;5.13;;;;;;;-6.95;82.52;97684.31;4996258;28;20448;-81
2022/01/17 01:37:52;;;;;;;14.15;5.38;;;;;;;-6.87;83.47;97684.56;4995753;28;20033;-77
2022/01/17 01:40:18;;;;;;;15.85;4.72;;;;;;;-6.82;83.34;97667.06;5011857;28;20040;-78
2022/01/17 01:42:45;;;;;;;16.98;5.53;;;;;;;-6.81;82.94;97659.56;5012644;28;20438;-78
2022/01/17 01:45:12;;;;;;;16.65;4.78;;;;;;;-6.77;82.39;97648.75;5011374;28;20547;-78
2022/01/17 01:47:38;;;;;;;12.88;4.55;;;;;;;-6.75;82.60;97647.13;4995405;28;20045;-78
2022/01/17 01:50:04;;;;;;;18.50;5.25;;;;;;;-6.67;82.76;97637.28;4991748;28;20034;-78
2022/01/17 01:52:30;;;;;;;16.50;5.07;;;;;;;-6.81;82.84;97625.94;5012242;28;20183;-78
2022/01/17 01:54:55;;;;;;;18.63;5.53;;;;;;;-6.62;82.95;97632.38;5011614;28;20042;-78
2022/01/17 01:57:21;;;;;;;14.95;4.65;;;;;;;-6.56;82.99;97617.44;5011958;28;20532;-78
2022/01/17 01:59:47;;;;;;;17.40;5.20;;;;;;;-6.49;81.55;97604.22;5011690;28;20125;-77
2022/01/17 02:02:13;;;;;;;18.08;5.95;;;;;;;-6.57;82.39;97595.56;5012314;28;20058;-78
2022/01/17 02:04:39;;;;;;;19.52;5.75;;;;;;;-6.50;82.13;97597.47;4995184;28;20038;-78
2022/01/17 02:07:05;;;;;;;16.08;5.72;;;;;;;-6.57;81.66;97593.88;4978930;28;20045;-78
2022/01/17 02:09:32;;;;;;;16.23;5.13;;;;;;;-6.46;82.44;97584.09;4994675;28;20056;-78
2022/01/17 02:11:58;;;;;;;15.63;5.70;;;;;;;-6.45;81.83;97590.88;5010978;28;20050;-78
2022/01/17 02:14:24;;;;;;;14.63;4.95;;;;;;;-6.35;82.29;97564.25;5011310;28;20908;-78
2022/01/17 02:16:51;;;;;;;14.35;4.97;;;;;;;-6.40;81.76;97557.41;5012685;28;20046;-78
2022/01/17 02:19:24;;;;;;;13.00;4.60;;;;;;;-6.35;82.03;97544.06;5011671;28;20046;-79
2022/01/17 02:21:50;;;;;;;15.77;5.75;;;;;;;-6.37;82.19;97530.53;5011715;28;20433;-78
2022/01/17 02:24:18;;;;;;;12.82;4.70;;;;;;;-6.28;81.96;97536.69;5012706;28;20069;-79
2022/01/17 02:26:44;;;;;;;15.18;5.05;;;;;;;-6.34;82.71;97528.97;5012057;28;20493;-78
2022/01/17 02:29:10;;;;;;;17.90;5.30;;;;;;;-6.31;82.16;97518.09;4995159;28;20136;-77
2022/01/17 02:31:36;;;;;;;18.15;4.28;;;;;;;-6.31;81.78;97496.25;4995003;28;20501;-77
2022/01/17 02:34:03;;;;;;;14.98;5.57;;;;;;;-6.33;82.28;97495.34;5011501;28;20527;-78
2022/01/17 02:36:29;;;;;;;15.40;5.32;;;;;;;-6.26;82.10;97478.72;5010766;28;20128;-77
2022/01/17 02:38:55;;;;;;;15.90;5.03;;;;;;;-6.32;82.16;97461.75;4994931;28;20136;-78
2022/01/17 02:41:21;;;;;;;16.67;4.85;;;;;;;-6.22;81.72;97475.47;5011257;28;20125;-77
2022/01/17 02:43:47;;;;;;;12.52;5.30;;;;;;;-6.21;81.70;97480.53;5012366;28;20087;-78
2022/01/17 02:48:39;;;;;;;15.20;5.20;;;;;;;-6.23;81.93;97469.56;5010636;28;20061;-77
2022/01/17 02:51:05;;;;;;;11.45;4.53;;;;;;;-6.13;82.03;97462.25;5027566;28;20068;-77
2022/01/17 02:53:31;;;;;;;13.10;4.80;;;;;;;-6.13;82.41;97459.72;4994841;28;20065;-77
2022/01/17 02:56:02;;;;;;;14.27;3.92;;;;;;;-6.09;82.33;97436.22;5010955;28;20095;-78
2022/01/17 02:58:28;;;;;;;11.45;5.00;;;;;;;-6.03;82.55;97431.38;5010766;28;20041;-76
2022/01/17 03:00:56;;;;;;;15.63;4.50;;;;;;;-5.98;82.63;97432.31;4993940;28;20456;-77
2022/01/17 03:03:27;;;;;;;11.90;4.22;;;;;;;-6.03;82.02;97422.13;5010398;28;20596;-78
2022/01/17 03:05:55;;;;;;;11.85;3.83;;;;;;;-5.91;81.82;97406.38;5010864;28;20413;-78
2022/01/17 03:08:22;;;;;;;13.82;4.35;;;;;;;-5.91;81.67;97396.25;5011727;28;20133;-78
2022/01/17 03:10:47;;;;;;;8.68;4.20;;;;;;;-5.87;82.10;97393.84;4997658;28;20033;-79
2022/01/17 03:13:15;;;;;;;14.15;3.85;;;;;;;-5.87;81.44;97390.47;5015690;28;20042;-79
2022/01/17 03:15:41;;;;;;;9.88;4.22;;;;;;;-5.84;81.64;97372.88;5014157;28;20054;-79
2022/01/17 03:18:06;;;;;;;9.02;3.28;;;;;;;-5.77;82.05;97381.44;5013933;28;20091;-77
2022/01/17 03:20:34;;;;;;;10.30;3.72;;;;;;;-5.79;81.73;97361.22;5014335;28;20184;-77
2022/01/17 03:23:00;;;;;;;7.53;3.70;;;;;;;-5.75;81.46;97365.53;4997805;28;20679;-77
2022/01/17 03:25:26;;;;;;;;;;;;;;;-5.66;81.53;97363.22;5014502;28;20129;-77
2022/01/17 03:27:51;;;;;;;8.98;3.47;;;;;;;-5.61;80.81;97360.78;5030717;28;20016;-77
2022/01/17 03:30:17;;;;;;;7.88;3.10;;;;;;;-5.59;81.67;97356.59;5014117;28;20038;-77
2022/01/17 03:32:43;;;;;;;9.00;3.47;;;;;;;-5.62;81.35;97344.78;5013828;28;20084;-78
2022/01/17 03:35:08;;;;;;;11.43;3.83;;;;;;;-5.63;81.33;97332.97;4997659;28;20053;-78
2022/01/17 03:37:34;;;;;;;7.15;3.25;;;;;;;-5.55;80.61;97335.66;5013718;28;20041;-78
2022/01/17 03:40:00;;;;;;;11.48;3.75;;;;;;;-5.52;80.70;97334.88;5014132;28;20497;-77
2022/01/17 03:42:25;;;;;;;10.73;3.80;;;;;;;-5.52;80.77;97322.25;5047117;28;20045;-77
2022/01/17 03:44:51;;;;;;;7.90;3.00;;;;;;;-5.46;80.54;97319.84;5014076;28;20038;-78
2022/01/17 03:47:17;;;;;;;12.07;3.13;;;;;;;-5.44;79.99;97305.59;5013666;28;20036;-77
2022/01/17 03:49:43;;;;;;;8.10;3.35;;;;;;;-5.48;80.41;97307.19;5013921;28;20505;-78
2022/01/17 03:52:08;;;;;;;7.25;2.83;;;;;;;-5.41;80.19;97308.16;5030689;28;20080;-78
2022/01/17 03:54:34;;;;;;;9.35;3.42;;;;;;;-5.49;79.98;97302.97;5014236;28;20038;-78
2022/01/17 03:57:00;;;;;;;;;;;;;;;-5.42;80.23;97293.81;5015681;28;20038;-78
2022/01/17 03:59:26;;;;;;;10.23;3.60;;;;;;;-5.50;79.98;97288.59;5015239;28;19964;-79
2022/01/17 04:01:51;;;;;;;11.02;3.53;;;;;;;-5.50;80.18;97282.69;5013769;28;20104;-78
2022/01/17 04:04:17;;;;;;;8.35;3.65;;;;;;;-5.46;80.58;97269.31;5015404;28;20563;-78
2022/01/17 04:06:43;;;;;;;10.43;3.65;;;;;;;-5.48;80.52;97268.44;5013905;28;20049;-77
2022/01/17 04:09:09;;;;;;;7.53;3.38;;;;;;;-5.44;80.34;97267.69;4997298;28;20042;-79
2022/01/17 04:11:36;;;;;;;7.55;3.25;;;;;;;-5.44;80.78;97248.31;5013702;28;20041;-78
2022/01/17 04:14:03;;;;;;;9.65;2.72;;;;;;;-5.34;80.72;97239.25;5013745;28;20073;-79
2022/01/17 04:16:29;;;;;;;6.25;3.00;;;;;;;-5.40;80.47;97229.88;5013703;28;20045;-81
2022/01/17 04:18:55;;;;;;;8.40;3.17;;;;;;;-5.37;80.19;97213.91;4997645;28;20188;-79
2022/01/17 04:21:21;;;;;;;13.43;3.20;;;;;;;-5.27;80.22;97230.94;4996118;28;20390;-77
2022/01/17 04:23:47;;;;;;;7.07;3.13;;;;;;;-5.28;80.50;97218.28;5013478;28;20053;-76
2022/01/17 04:26:12;;;;;;;10.13;3.72;;;;;;;-5.38;80.23;97222.31;5014876;28;20033;-77
2022/01/17 04:28:38;;;;;;;7.22;3.40;;;;;;;-5.29;80.77;97207.34;4997062;28;20057;-76
2022/01/17 04:31:04;;;;;;;7.00;3.08;;;;;;;-5.36;80.33;97190.34;5012928;28;20045;-77
2022/01/17 04:33:30;;;;;;;6.90;2.95;;;;;;;-5.26;80.47;97191.38;4996518;28;20056;-77
2022/01/17 04:35:55;;;;;;;9.30;2.92;;;;;;;-5.27;80.49;97195.56;5014013;28;20077;-77
2022/01/17 04:38:21;;;;;;;7.93;3.15;;;;;;;-5.23;80.36;97204.91;5012674;28;20088;-79
2022/01/17 04:40:48;;;;;;;9.60;3.28;;;;;;;-5.24;80.21;97174.56;4996694;28;20064;-76
2022/01/17 04:46:00;;;;;;;6.95;3.17;;;;;;;-5.24;79.84;97160.25;4999863;28;20042;-81
2022/01/17 04:48:26;;;;;;;9.27;2.92;;;;;;;-5.14;79.98;97162.09;5012554;28;20068;-79
2022/01/17 04:50:52;;;;;;;6.63;3.00;;;;;;;-5.17;79.71;97159.53;5013928;28;20034;-78
2022/01/17 04:53:20;;;;;;;7.43;3.10;;;;;;;-5.16;79.68;97158.72;5012562;28;20559;-78
2022/01/17 04:55:46;;;;;;;9.95;3.35;;;;;;;-5.09;79.95;97151.22;5012181;28;20049;-76
2022/01/17 04:58:12;;;;;;;10.40;3.70;;;;;;;-5.04;79.32;97144.56;4996418;28;20038;-77
2022/01/17 05:00:39;;;;;;;;;;;;;;;-5.00;79.20;97153.91;4996210;28;20042;-78
2022/01/17 05:03:07;;;;;;;11.30;3.38;;;;;;;-5.06;79.57;97149.59;5028953;28;19921;-77
2022/01/17 05:05:33;;;;;;;8.02;3.03;;;;;;;-5.05;79.76;97156.34;5012322;28;20044;-79
2022/01/17 05:07:59;;;;;;;8.65;3.60;;;;;;;-5.08;79.50;97137.78;5012409;28;20034;-78
2022/01/17 05:10:24;;;;;;;6.85;2.83;;;;;;;-5.04;79.61;97130.28;4995749;28;20045;-77
2022/01/17 05:12:51;;;;;;;6.00;3.60;;;;;;;-4.97;79.40;97123.63;5012560;28;20070;-78
2022/01/17 05:15:42;;;;;;;7.95;3.40;;;;;;;-4.97;78.90;97108.47;5013512;28;20485;-78
2022/01/17 05:20:41;;;;;;;7.00;2.92;;;;;;;-4.94;79.40;97103.47;4996905;28;20052;-77
2022/01/17 05:23:07;;;;;;;8.13;3.20;;;;;;;-5.01;79.78;97096.59;5012425;28;20050;-78
2022/01/17 05:25:32;;;;;;;6.97;3.10;;;;;;;-4.96;79.24;97098.34;4980000;28;20099;-79
2022/01/17 05:27:58;;;;;;;10.43;3.75;;;;;;;-4.96;79.64;97097.50;5012793;28;20038;-76
2022/01/17 05:30:24;;;;;;;10.90;3.85;;;;;;;-4.93;79.47;97095.03;5012465;28;20038;-78
2022/01/17 05:32:50;;;;;;;9.20;3.65;;;;;;;-4.87;78.91;97085.00;5011873;28;20045;-78
2022/01/17 05:35:16;;;;;;;7.95;3.53;;;;;;;-4.91;78.98;97081.56;4996252;28;20570;-77
2022/01/17 05:37:42;;;;;;;10.00;3.72;;;;;;;-4.88;79.35;97094.28;5013374;28;20053;-77
2022/01/17 05:40:09;;;;;;;8.95;3.65;;;;;;;-4.87;79.04;97079.94;5012492;28;20099;-77
2022/01/17 05:42:34;;;;;;;8.32;3.65;;;;;;;-4.84;79.07;97069.91;5012446;28;20037;-78
2022/01/17 05:45:00;;;;;;;10.80;3.83;;;;;;;-4.86;78.98;97069.88;5012314;28;20072;-78
2022/01/17 05:47:26;;;;;;;11.13;4.38;;;;;;;-4.76;79.28;97072.53;5013395;28;20084;-77
2022/01/17 05:49:52;;;;;;;8.98;4.00;;;;;;;-4.85;79.59;97083.38;5013635;28;20046;-77
2022/01/17 05:52:17;;;;;;;9.90;4.25;;;;;;;-4.79;79.26;97057.31;5012142;28;20064;-77
2022/01/17 05:54:43;;;;;;;9.20;3.92;;;;;;;-4.91;79.56;97078.19;5011744;28;20033;-78
2022/01/17 05:57:09;;;;;;;8.27;3.42;;;;;;;-4.87;79.59;97050.47;5011683;28;20038;-78
2022/01/17 05:59:34;;;;;;;8.90;4.13;;;;;;;-4.83;79.54;97036.19;5011725;28;20041;-78
2022/01/17 06:02:00;;;;;;;9.93;4.28;;;;;;;-4.79;79.39;97025.28;5044558;28;20058;-79
2022/01/17 06:04:26;;;;;;;10.20;4.07;;;;;;;-4.86;79.33;97010.84;5011682;28;20057;-79
2022/01/17 06:06:52;;;;;;;11.40;4.50;;;;;;;-4.78;79.75;97014.34;5028537;28;20077;-80
2022/01/17 06:09:18;;;;;;;8.93;4.47;;;;;;;-4.80;79.86;96995.78;5011438;28;20179;-77
2022/01/17 06:11:43;;;;;;;11.05;4.63;;;;;;;-4.93;79.60;96968.63;5012713;28;20046;-78
2022/01/17 06:14:15;;;;;;;13.63;4.40;;;;;;;-4.87;80.57;96972.06;5011724;28;20489;-77
2022/01/17 06:16:41;;;;;;;13.52;4.80;;;;;;;-4.86;80.60;96942.56;5012718;28;20497;-78
2022/01/17 06:19:07;;;;;;;11.32;5.07;;;;;;;-4.81;81.64;96933.41;5027888;28;20052;-79
2022/01/17 06:21:32;;;;;;;11.98;4.57;;;;;;;-4.80;81.72;96929.19;5011398;28;20095;-78
2022/01/17 06:24:00;;;;;;;9.93;5.47;;;;;;;-4.83;82.13;96909.75;5011333;28;20069;-79
2022/01/17 06:26:26;;;;;;;13.27;5.05;;;;;;;-4.81;81.91;96918.22;4995149;28;20037;-77
2022/01/17 06:28:51;;;;;;;14.80;5.35;;;;;;;-4.81;82.45;96965.41;5011842;28;20041;-78
2022/01/17 06:31:17;;;;;;;11.65;5.20;;;;;;;-4.82;81.89;96991.50;5011633;28;20041;-78
2022/01/17 06:33:43;;;;;;;9.85;4.63;;;;;;;-4.74;82.12;97015.22;5012455;28;20049;-77
2022/01/17 06:36:08;;;;;;;10.77;5.03;;;;;;;-4.79;82.32;97050.56;5011186;28;20038;-78
2022/01/17 06:38:34;;;;;;;13.10;5.50;;;;;;;-4.76;82.64;97070.00;5010996;28;20044;-78
2022/01/17 06:41:00;;;;;;;13.80;5.93;;;;;;;-4.76;83.10;97080.97;5011161;28;20049;-76
2022/01/17 06:43:25;;;;;;;12.57;5.28;;;;;;;-4.80;83.17;97038.78;5012741;28;20045;-79
2022/01/17 06:45:51;;;;;;;13.60;5.60;;;;;;;-4.76;83.05;97037.13;5016115;28;20046;-78
2022/01/17 06:48:17;;;;;;;15.82;6.05;;;;;;;-4.78;82.94;97001.69;5016177;28;20038;-78
2022/01/17 06:50:42;;;;;;;12.93;4.93;;;;;;;-4.70;83.27;96962.19;5015548;28;20046;-79
2022/01/17 06:53:08;;;;;;;10.93;5.50;;;;;;;-4.77;83.25;96937.63;5015231;28;20050;-78
2022/01/17 06:55:34;;;;;;;17.98;6.07;;;;;;;-4.73;83.67;96916.59;5015575;28;20534;-77
2022/01/17 06:57:59;;;;;;;9.88;4.93;;;;;;;-4.72;83.90;96893.03;5015755;28;20082;-77
2022/01/17 07:00:25;;;;;;;13.65;5.80;;;;;;;-4.72;83.73;96905.69;5015253;28;20045;-78
2022/01/17 07:02:51;;;;;;;10.50;5.22;;;;;;;-4.76;83.90;96891.31;4999167;28;20497;-78
2022/01/17 07:05:16;;;;;;;24.38;6.28;;;;;;;-4.76;84.07;96903.09;5016332;28;20383;-78
2022/01/17 07:07:42;;;;;;;12.52;5.47;;;;;;;-4.73;84.00;96903.13;5015039;28;20046;-78
2022/01/17 07:10:08;;;;;;;11.32;5.85;;;;;;;-4.79;84.10;96891.25;5015282;28;20048;-79
2022/01/17 07:12:36;;;;;;;12.27;5.03;;;;;;;-4.71;84.64;96888.81;5015849;28;20042;-79
2022/01/17 07:15:06;;;;;;;13.70;5.88;;;;;;;-4.70;84.23;96890.53;5016397;28;20562;-78
2022/01/17 07:17:32;;;;;;;12.65;6.05;;;;;;;-4.75;84.56;96909.84;4998198;28;20069;-77
2022/01/17 07:19:57;;;;;;;14.75;6.25;;;;;;;-4.75;84.30;96919.97;4998547;28;20057;-79
2022/01/17 07:22:23;;;;;;;14.35;6.55;;;;;;;-4.81;84.18;96902.19;4998715;28;20152;-77
2022/01/17 07:24:49;;;;;;;13.93;6.32;;;;;;;-4.78;84.21;96902.22;5030954;28;20048;-77
2022/01/17 07:27:15;;;;;;;13.60;5.95;;;;;;;-4.80;84.54;96891.25;5015007;28;20072;-77
2022/01/17 07:29:40;;;;;;;;;;;;;;;-4.73;84.33;96881.19;5015174;28;20042;-77
2022/01/17 07:32:07;;;;;;;13.98;5.47;;;;;;;-4.76;84.49;96885.41;5016042;28;19917;-79
2022/01/17 07:34:33;;;;;;;13.50;6.63;;;;;;;-4.67;84.81;96888.03;4998503;28;20045;-77
2022/01/17 07:36:59;;;;;;;16.15;7.28;;;;;;;-4.71;84.61;96889.69;5016220;28;20485;-78
2022/01/17 07:39:26;;;;;;;12.35;6.15;;;;;;;-4.72;83.63;96872.81;4998427;28;20081;-80
2022/01/17 07:41:52;;;;;;;13.18;5.72;;;;;;;-4.69;83.53;96882.09;5031422;28;20046;-78
2022/01/17 07:44:22;;;;;;;12.98;5.72;;;;;;;-4.63;83.89;96866.97;5014700;28;20068;-77
2022/01/17 07:46:53;;;;;;;13.23;6.75;;;;;;;-4.76;83.90;96845.78;5014348;28;20037;-78
2022/01/17 07:49:21;;;;;;;13.50;6.72;;;;;;;-4.63;84.28;96855.19;4999020;28;20049;-78
2022/01/17 07:51:59;;;;;;;13.00;5.85;;;;;;;-4.60;83.69;96827.38;4998597;28;20038;-78
2022/01/17 07:54:30;;;;;;;16.58;7.10;;;;;;;-4.56;83.84;96804.66;5014130;28;20042;-79
2022/01/17 07:56:57;;;;;;;16.23;8.02;;;;;;;-4.55;83.52;96813.94;5014116;28;20176;-78
2022/01/17 07:59:22;;;;;;;15.85;7.00;;;;;;;-4.60;83.06;96845.09;5014066;28;20124;-78
2022/01/17 08:01:48;;;;;;;15.98;7.25;;;;;;;-4.55;83.45;96829.13;5015072;28;20058;-78
2022/01/17 08:04:14;;;;;;;17.50;6.85;;;;;;;-4.51;83.82;96830.84;4997717;28;20045;-78
2022/01/17 08:06:40;;;;;;;14.68;7.00;;;;;;;-4.48;83.35;96823.28;4997427;28;20432;-78
2022/01/17 08:09:20;;;;;;;14.48;6.10;;;;;;;-4.44;83.42;96813.22;5014332;28;20121;-77
2022/01/17 08:11:46;;;;;;;15.07;7.00;;;;;;;-4.49;82.75;96808.94;5014235;28;20050;-77
2022/01/17 08:14:12;;;;;;;14.35;7.75;;;;;;;-4.50;82.88;96808.06;5015175;28;20069;-78
2022/01/17 08:16:38;;;;;;;15.00;7.80;;;;;;;-4.49;83.01;96803.88;4998053;28;20095;-78
2022/01/17 08:19:04;;;;;;;20.17;7.47;;;;;;;-4.50;82.89;96789.53;5015314;28;20041;-78
2022/01/17 08:21:29;;;;;;;20.85;8.07;;;;;;;-4.41;83.30;96787.06;4997475;28;20214;-80
2022/01/17 08:23:55;;;;;;;14.90;7.50;;;;;;;-4.36;82.83;96805.66;4997514;28;20034;-79
2022/01/17 08:26:21;;;;;;;15.60;8.02;;;;;;;-4.39;82.85;96786.25;5013896;28;20511;-78
2022/01/17 08:28:47;;;;;;;16.98;8.00;;;;;;;-4.33;83.27;96775.34;5013849;28;20048;-79
2022/01/17 08:31:12;;;;;;;;;;;;;;;-4.33;83.42;96800.66;5014203;28;20080;-78
2022/01/17 08:33:38;;;;;;;12.68;6.80;;;;;;;-4.31;83.59;96788.84;5015176;28;19917;-78
2022/01/17 08:36:04;;;;;;;18.40;8.38;;;;;;;-4.24;83.47;96784.69;4997513;28;20030;-78
2022/01/17 08:38:30;;;;;;;15.85;7.78;;;;;;;-4.30;83.17;96772.84;5015343;28;20132;-79
2022/01/17 08:40:57;;;;;;;16.45;8.60;;;;;;;-4.40;83.51;96763.47;5014072;28;20076;-78
2022/01/17 08:43:24;;;;;;;18.58;8.55;;;;;;;-4.26;83.55;96774.56;5014308;28;20129;-78
2022/01/17 08:45:49;;;;;;;;;;;;;;;-4.22;83.90;96771.19;5014029;28;20033;-78
2022/01/17 08:48:15;;;;;;;21.02;9.63;;;;;;;-4.22;83.54;96765.28;5046755;28;20393;-77
2022/01/17 08:50:41;;;;;;;19.60;9.52;;;;;;;-4.25;83.34;96758.53;5015354;28;20084;-79
2022/01/17 08:53:10;;;;;;;17.77;9.02;;;;;;;-4.19;83.22;96765.31;5013586;28;20045;-79
2022/01/17 08:55:36;;;;;;;15.13;8.77;;;;;;;-4.17;83.28;96751.84;5013260;28;20046;-77
2022/01/17 08:58:02;;;;;;;;;;;;;;;-4.11;83.33;96754.41;5014932;28;20034;-77
2022/01/17 09:00:28;;;;;;;18.58;8.63;;;;;;;-4.10;83.71;96745.97;5013081;28;19971;-80
2022/01/17 09:02:53;;;;;;;21.38;10.07;;;;;;;-4.10;83.58;96745.13;4997403;28;20124;-78
2022/01/17 09:05:19;;;;;;;15.93;9.00;;;;;;;-4.05;83.68;96751.06;4996881;28;20052;-78
2022/01/17 09:07:45;;;;;;;22.23;9.98;;;;;;;-4.07;83.17;96736.72;5012859;28;20044;-78
2022/01/17 09:10:11;;;;;;;22.25;9.38;;;;;;;-4.04;83.50;96741.78;4997224;28;20104;-79
2022/01/17 09:12:36;;;;;;;18.10;10.32;;;;;;;-4.12;83.00;96724.88;4996745;28;20033;-79
2022/01/17 09:15:02;;;;;;;22.30;11.75;;;;;;;-4.05;83.13;96745.16;5014513;28;20041;-79
2022/01/17 09:17:28;;;;;;;;;;;;;;;-4.00;83.74;96719.03;4998317;28;20069;-81
2022/01/17 09:19:54;;;;;;;17.38;9.75;;;;;;;-3.93;83.09;96719.91;5013028;28;20351;-79
2022/01/17 09:22:19;;;;;;;23.50;10.90;;;;;;;-3.87;83.66;96708.13;5029293;28;20049;-78
2022/01/17 09:24:45;;;;;;;22.70;10.90;;;;;;;-3.88;83.07;96698.84;5014005;28;20042;-80
2022/01/17 09:27:12;;;;;;;20.17;11.05;;;;;;;-3.95;83.37;96679.38;5013710;28;20041;-83
2022/01/17 09:29:38;;;;;;;21.05;11.82;;;;;;;-3.89;83.81;96698.84;5013850;28;20052;-82
2022/01/17 09:32:04;;;;;;;23.42;11.93;;;;;;;-3.86;84.29;96670.97;4980576;28;20030;-80
2022/01/17 09:34:29;;;;;;;;;;;;;;;-3.80;84.12;96690.41;5030418;28;20042;-80
2022/01/17 09:36:55;;;;;;;22.52;12.27;;;;;;;-3.87;84.25;96674.34;5046979;28;19979;-78
2022/01/17 09:39:21;;;;;;;23.17;11.63;;;;;;;-3.88;84.39;96657.47;4996471;28;20058;-79
2022/01/17 09:41:46;;;;;;;23.60;12.02;;;;;;;-3.85;84.58;96645.69;4997040;28;20049;-78
2022/01/17 09:44:12;;;;;;;19.50;11.85;;;;;;;-3.79;85.04;96662.59;4996541;28;20096;-78
2022/01/17 09:46:42;;;;;;;22.48;12.40;;;;;;;-3.79;85.45;96649.06;5029322;28;20034;-81
2022/01/17 09:49:24;;;;;;;21.35;13.00;;;;;;;-3.77;84.64;96645.69;4996998;28;20048;-80
2022/01/17 09:54:27;;;;;;;23.13;12.93;;;;;;;-3.79;85.96;96627.13;5014025;28;20041;-79
2022/01/17 09:56:53;;;;;;;25.75;13.10;;;;;;;-3.74;85.34;96634.75;5012635;28;20045;-77
2022/01/17 09:59:19;;;;;;;22.00;12.65;;;;;;;-3.79;85.05;96623.75;4979642;28;20696;-80
2022/01/17 10:01:45;;;;;;;23.77;13.52;;;;;;;-3.77;84.83;96617.84;5028818;28;20069;-78
2022/01/17 10:04:11;;;;;;;25.13;14.70;;;;;;;-3.67;85.54;96627.13;4996195;28;20048;-81
2022/01/17 10:06:39;;;;;;;22.25;12.85;;;;;;;-3.70;85.35;96618.72;5013628;28;20030;-78
2022/01/17 10:09:21;;;;;;;22.90;13.85;;;;;;;-3.75;85.72;96628.84;4996162;28;20076;-79
2022/01/17 10:12:11;;;;;;;22.92;13.40;;;;;;;-3.70;86.16;96634.75;4996558;28;20042;-77
2022/01/17 10:14:42;;;;;;;23.48;13.38;;;;;;;-3.65;86.81;96637.31;4995474;28;20041;-79
2022/01/17 10:17:14;;;;;;;24.83;13.25;;;;;;;-3.53;86.86;96613.66;4995785;28;20053;-79
2022/01/17 10:19:40;;;;;;;26.95;14.52;;;;;;;-3.62;86.85;96591.69;5011595;28;20042;-79
2022/01/17 10:22:12;;;;;;;23.80;14.38;;;;;;;-3.59;87.06;96606.91;5012520;28;20132;-78
2022/01/17 10:27:54;;;;;;;23.73;14.57;;;;;;;-3.59;87.77;96592.53;4996933;28;20045;-78
2022/01/17 10:35:25;;;;;;;25.35;14.73;;;;;;;-3.53;88.32;96571.44;4999053;28;20116;-79
2022/01/17 10:38:02;;;;;;;25.40;14.15;;;;;;;-3.41;88.08;96573.16;4996758;28;20077;-79
2022/01/17 10:40:56;;;;;;;27.13;17.50;;;;;;;-3.53;88.58;96575.66;5011820;28;20065;-79
2022/01/17 10:43:36;;;;;;;30.02;17.05;;;;;;;-3.47;88.68;96563.03;4999076;28;20449;-78
2022/01/17 10:46:11;;;;;;;26.27;13.88;;;;;;;-3.46;89.13;96570.63;4980426;28;20045;-79
2022/01/17 10:48:43;;;;;;;30.77;16.77;;;;;;;-3.54;88.79;96572.28;5011926;28;20041;-78
2022/01/17 10:51:11;;;;;;;30.67;15.27;;;;;;;-3.42;88.75;96557.09;5011766;28;20049;-77
2022/01/17 10:53:39;;;;;;;30.52;16.13;;;;;;;-3.41;88.90;96540.22;4963580;28;20030;-79
2022/01/17 10:56:08;;;;;;;25.13;14.95;;;;;;;-3.48;88.71;96528.38;4996300;28;20041;-78
2022/01/17 10:58:35;;;;;;;28.40;16.65;;;;;;;-3.42;89.52;96531.75;4995885;28;20057;-78
2022/01/17 11:01:04;;;;;;;29.17;17.73;;;;;;;-3.37;89.77;96547.81;5029089;28;20496;-78
2022/01/17 11:03:32;;;;;;;27.40;15.80;;;;;;;-3.32;89.43;96545.28;4996098;28;20076;-79
2022/01/17 11:06:00;;;;;;;27.95;17.58;;;;;;;-3.39;88.92;96506.44;5012873;28;20037;-77
2022/01/17 11:08:28;;;;;;;22.55;13.10;;;;;;;-3.27;88.87;96518.25;5012008;28;20440;-77
2022/01/17 11:10:55;;;;;;;25.48;16.50;;;;;;;-3.37;89.35;96508.97;5006714;28;20117;-78
2022/01/17 11:13:22;;;;;;;27.35;16.23;;;;;;;-3.29;88.42;96516.56;5005368;28;20440;-81
2022/01/17 11:15:53;;;;;;;25.30;15.82;;;;;;;-3.28;89.56;96506.41;5011953;28;20095;-77
2022/01/17 11:18:23;;;;;;;36.10;17.50;;;;;;;-3.30;89.38;96517.38;5011939;28;20117;-77
2022/01/17 11:20:51;;;;;;;30.52;17.73;;;;;;;-3.34;89.21;96493.75;4996188;28;20512;-78
2022/01/17 11:23:17;;;;;;;25.45;15.13;;;;;;;-3.26;89.32;96504.72;4979520;28;20040;-79
2022/01/17 11:25:44;;;;;;;26.63;15.25;;;;;;;-3.24;89.05;96495.44;5028534;28;20088;-77
2022/01/17 11:28:11;;;;;;;30.33;17.92;;;;;;;-3.22;89.57;96503.03;4995672;28;20056;-78
2022/01/17 11:30:38;;;;;;;29.52;17.38;;;;;;;-3.15;89.42;96495.44;4979824;28;20073;-78
2022/01/17 11:33:06;;;;;;;29.10;17.00;;;;;;;-3.16;89.83;96495.41;5025390;28;20037;-78
2022/01/17 11:35:34;;;;;;;24.65;15.85;;;;;;;-3.14;90.30;96492.03;5015393;28;20062;-78
2022/01/17 11:38:00;;;;;;;30.95;17.98;;;;;;;-3.17;89.51;96481.06;5013671;28;20469;-78
2022/01/17 11:40:39;;;;;;;28.60;17.55;;;;;;;-3.25;89.46;96473.47;5011456;28;20026;-78
2022/01/17 11:43:38;;;;;;;27.08;18.08;;;;;;;-3.19;89.93;96465.00;5023884;28;20042;-79
2022/01/17 11:46:18;;;;;;;27.02;16.77;;;;;;;-3.18;90.05;96470.06;5012085;28;20452;-77
2022/01/17 11:48:51;;;;;;;24.75;15.00;;;;;;;-3.14;89.90;96486.97;5014979;28;20059;-78
2022/01/17 11:51:16;;;;;;;27.13;15.68;;;;;;;-3.15;89.36;96476.84;5015833;28;20104;-76
2022/01/17 11:53:44;;;;;;;23.35;16.48;;;;;;;-3.16;89.11;96467.53;5013793;28;20125;-78
2022/01/17 11:56:11;;;;;;;24.20;16.48;;;;;;;-3.21;89.44;96462.47;5044083;28;20081;-77
2022/01/17 11:58:46;;;;;;;27.27;16.25;;;;;;;-3.17;89.53;96443.88;4998014;28;20401;-78
2022/01/17 12:01:18;;;;;;;22.98;15.05;;;;;;;-3.15;89.17;96434.59;5012565;28;20390;-77